Time;durP1;ratioP1;P1;durP2;ratioP2;P2;SDS_P1;SDS_P2;PMS_P1;PMS_P2;Temp;Humidity;BMP_temperature;BMP_pressure;BME280_temperature;BME280_humidity;BME280_pressure;Samples;Min_cycle;Max_cycle;Signal;HPM_P1;HPM_P2
2021/12/15 00:01:05;;;;;;;;;;;;;;;10.07;64.86;100381.50;4983139;28;19944;-76
2021/12/15 00:03:31;;;;;;;;;;;;;;;10.10;67.45;100376.31;4983654;28;19921;-76
2021/12/15 00:05:57;;;;;;;;;;;;;;;9.83;69.74;100367.94;4988326;28;19972;-75
2021/12/15 00:08:22;;;;;;;;;;;;;;;9.93;69.13;100359.28;4987526;28;19925;-75
2021/12/15 00:10:48;;;;;;;;;;;;;;;10.09;69.81;100359.19;5002881;28;19925;-77
2021/12/15 00:13:14;;;;;;;;;;;;;;;10.04;71.01;100356.63;5004175;28;20282;-75
2021/12/15 00:15:40;;;;;;;;;;;;;;;9.91;69.41;100353.28;4986015;28;20009;-77
2021/12/15 00:18:06;;;;;;;;;;;;;;;10.14;69.37;100352.25;4987886;28;20307;-77
2021/12/15 00:20:32;;;;;;;;;;;;;;;9.87;71.90;100354.19;4986377;28;19917;-77
2021/12/15 00:22:58;;;;;;;;;;;;;;;10.16;71.61;100343.66;4997811;28;19917;-77
2021/12/15 00:25:24;;;;;;;;;;;;;;;10.21;73.61;100344.44;4986639;28;19971;-77
2021/12/15 00:27:50;;;;;;;;;;;;;;;9.96;74.95;100346.38;4981560;28;19933;-78
2021/12/15 00:30:15;;;;;;;;;;;;;;;9.90;73.25;100349.03;4979497;28;19945;-76
2021/12/15 00:32:41;;;;;;;;;;;;;;;9.93;70.89;100359.28;4985845;28;19918;-77
2021/12/15 00:35:07;;;;;;;;;;;;;;;9.90;71.59;100350.72;4986201;28;19926;-76
2021/12/15 00:37:32;;;;;;;;;;;;;;;10.05;68.83;100359.19;4986334;28;19918;-75
2021/12/15 00:39:58;;;;;;;;;;;;;;;10.10;71.98;100355.72;4984752;28;19941;-77
2021/12/15 00:42:23;;;;;;;;;;;;;;;10.15;72.47;100344.53;4985753;28;19922;-77
2021/12/15 00:44:49;;;;;;;;;;;;;;;10.24;71.60;100348.72;4984629;28;19922;-77
2021/12/15 00:47:14;;;;;;;;;;;;;;;9.89;70.65;100347.31;4986392;28;19928;-77
2021/12/15 00:49:40;;;;;;;;;;;;;;;10.23;69.30;100347.88;4973748;28;19957;-78
2021/12/15 00:52:06;;;;;;;;;;;;;;;9.93;63.72;100355.88;4974876;28;19917;-77
2021/12/15 00:54:31;;;;;;;;;;;;;;;10.04;65.81;100362.63;4986487;28;19929;-77
2021/12/15 00:56:57;;;;;;;;;;;;;;;10.22;65.77;100350.47;4958168;28;19917;-78
2021/12/15 00:59:23;;;;;;;;;;;;;;;10.22;70.36;100356.47;4971088;28;20402;-77
2021/12/15 01:01:49;;;;;;;;;;;;;;;10.31;72.18;100352.13;4986478;28;19922;-77
2021/12/15 01:04:15;;;;;;;;;;;;;;;10.07;73.07;100350.59;4957087;28;19985;-77
2021/12/15 01:06:41;;;;;;;;;;;;;;;10.20;72.30;100349.63;4984907;28;19922;-78
2021/12/15 01:09:09;;;;;;;;;;;;;;;9.27;72.67;100346.00;4984086;28;19926;-78
2021/12/15 01:19:46;;;;;;;;;;;;;;;9.53;51.84;100374.13;4973311;28;19964;-77
2021/12/15 01:20:02;;;;;;;;;;;;;;;9.62;45.08;100390.38;4984230;28;20434;-78
2021/12/15 01:22:33;;;;;;;;;;;;;;;9.70;44.60;100397.19;4984210;28;20016;-77
2021/12/15 01:24:59;;;;;;;;;;;;;;;9.13;48.27;100395.72;4984739;28;19921;-77
2021/12/15 01:27:25;;;;;;;;;;;;;;;9.58;40.72;100401.53;4992650;28;19975;-77
2021/12/15 01:29:50;;;;;;;;;;;;;;;9.16;42.69;100406.00;5008095;28;19921;-78
2021/12/15 01:32:16;;;;;;;;;;;;;;;9.21;40.12;100413.69;5008484;28;20063;-77
2021/12/15 01:34:41;;;;;;;;;;;;;;;9.45;37.23;100415.31;4990416;28;19925;-77
2021/12/15 01:37:07;;;;;;;;;;;;;;;9.41;35.47;100426.47;5008694;28;20589;-77
2021/12/15 01:39:32;;;;;;;;;;;;;;;9.31;34.36;100419.66;5008431;28;20004;-77
2021/12/15 01:41:58;;;;;;;;;;;;;;;9.43;32.57;100435.03;4981010;28;19921;-77
2021/12/15 01:46:58;;;;;;;;;;;;;;;9.80;33.56;100433.13;4989084;28;20389;-77
2021/12/15 01:49:39;;;;;;;;;;;;;;;9.74;34.26;100440.00;4990688;28;19922;-77
2021/12/15 01:52:07;;;;;;;;;;;;;;;9.58;35.19;100437.53;5006387;28;19922;-77
2021/12/15 01:54:34;;;;;;;;;;;;;;;9.41;36.85;100426.47;4984952;28;19921;-77
2021/12/15 01:56:59;;;;;;;;;;;;;;;9.92;34.45;100429.66;4990871;28;19932;-77
2021/12/15 01:59:26;;;;;;;;;;;;;;;9.34;37.04;100422.22;4990855;28;19921;-77
2021/12/15 02:01:51;;;;;;;;;;;;;;;9.50;38.85;100423.84;5008184;28;20386;-77
2021/12/15 02:04:19;;;;;;;;;;;;;;;9.25;39.30;100417.13;4973487;28;19921;-78
2021/12/15 02:06:44;;;;;;;;;;;;;;;9.73;35.85;100422.88;4999901;28;20319;-77
2021/12/15 02:09:17;;;;;;;;;;;;;;;9.60;40.49;100417.81;4991241;28;19914;-77
2021/12/15 02:11:43;;;;;;;;;;;;;;;9.57;36.28;100428.09;4990056;28;19926;-77
2021/12/15 02:14:11;;;;;;;;;;;;;;;9.09;37.40;100426.59;5007718;28;19964;-77
2021/12/15 02:16:36;;;;;;;;;;;;;;;9.49;34.91;100424.72;4973486;28;19956;-77
2021/12/15 02:19:01;;;;;;;;;;;;;;;9.24;36.22;100417.97;4989246;28;21121;-77
2021/12/15 02:21:27;;;;;;;;;;;;;;;9.33;36.18;100412.81;5007541;28;19921;-77
2021/12/15 02:23:55;;;;;;;;;;;;;;;9.31;35.26;100409.38;4990160;28;19928;-77
2021/12/15 02:26:23;;;;;;;;;;;;;;;9.45;35.97;100409.31;5007820;28;19918;-77
2021/12/15 02:28:51;;;;;;;;;;;;;;;9.74;36.67;100414.28;4986664;28;19926;-77
2021/12/15 02:39:29;;;;;;;;;;;;;;;10.09;52.01;100379.75;4988481;28;19944;-77
2021/12/15 02:41:55;;;;;;;;;;;;;;;9.85;56.18;100376.47;4986111;28;19922;-77
2021/12/15 02:44:21;;;;;;;;;;;;;;;9.66;53.82;100369.78;4987132;28;19922;-77
2021/12/15 02:46:47;;;;;;;;;;;;;;;9.47;55.92;100364.75;4989010;28;20413;-77
2021/12/15 02:49:13;;;;;;;;;;;;;;;9.74;53.54;100367.97;4979475;28;20005;-77
2021/12/15 02:51:40;;;;;;;;;;;;;;;9.52;54.87;100368.13;4975037;28;19930;-77
2021/12/15 02:54:07;;;;;;;;;;;;;;;9.67;57.56;100358.59;4987691;28;19926;-77
2021/12/15 02:56:32;;;;;;;;;;;;;;;9.96;59.73;100356.69;4988598;28;20395;-77
2021/12/15 02:59:02;;;;;;;;;;;;;;;9.75;65.57;100344.81;4988657;28;19918;-77
2021/12/15 03:01:37;;;;;;;;;;;;;;;9.68;66.93;100337.19;4976073;28;20322;-77
2021/12/15 03:04:14;;;;;;;;;;;;;;;9.85;68.48;100337.88;4988379;28;19921;-77
2021/12/15 03:06:50;;;;;;;;;;;;;;;9.70;70.45;100331.16;4978402;28;19921;-77
2021/12/15 03:15:18;;;;;;;;;;;;;;;9.86;72.62;100326.75;4972045;28;19922;-77
2021/12/15 03:17:30;;;;;;;;;;;;;;;9.93;81.05;100307.81;4975023;28;20122;-77
2021/12/15 03:19:56;;;;;;;;;;;;;;;9.96;83.59;100312.09;4987181;28;19917;-77
2021/12/15 03:22:22;;;;;;;;;;;;;;;9.88;85.00;100309.59;4986259;28;19921;-77
2021/12/15 03:24:47;;;;;;;;;;;;;;;9.77;85.87;100307.09;4989001;28;20005;-78
2021/12/15 03:27:19;;;;;;;;;;;;;;;10.12;86.35;100298.19;4990976;28;19969;-77
2021/12/15 03:35:45;;;;;;;;;;;;;;;9.55;87.22;100298.66;4991561;28;19978;-77
2021/12/15 03:38:08;;;;;;;;;;;;;;;9.64;83.71;100301.16;4992570;28;19976;-77
2021/12/15 03:40:39;;;;;;;;;;;;;;;9.60;82.37;100306.34;5005392;28;19917;-77
2021/12/15 03:43:07;;;;;;;;;;;;;;;9.72;80.79;100313.16;4990096;28;21031;-78
2021/12/15 03:45:35;;;;;;;;;;;;;;;9.43;80.94;100307.31;4987597;28;19992;-77
2021/12/15 03:48:03;;;;;;;;;;;;;;;9.61;77.86;100320.94;4987262;28;19921;-77
2021/12/15 03:50:29;;;;;;;;;;;;;;;9.91;76.46;100317.25;4987166;28;19929;-78
2021/12/15 03:52:54;;;;;;;;;;;;;;;9.54;80.07;100320.13;4993032;28;20012;-78
2021/12/15 03:55:25;;;;;;;;;;;;;;;9.86;77.83;100324.19;5004699;28;19933;-77
2021/12/15 03:57:50;;;;;;;;;;;;;;;9.95;80.37;100313.81;4988320;28;19921;-77
2021/12/15 04:00:16;;;;;;;;;;;;;;;9.87;81.64;100315.56;4987800;28;20949;-77
2021/12/15 04:02:42;;;;;;;;;;;;;;;9.83;82.29;100313.91;4988205;28;19921;-77
2021/12/15 04:05:08;;;;;;;;;;;;;;;9.83;82.90;100319.06;4987780;28;19921;-77
2021/12/15 04:07:35;;;;;;;;;;;;;;;9.90;81.02;100323.28;4992884;28;20007;-78
2021/12/15 04:10:01;;;;;;;;;;;;;;;10.05;81.64;100307.69;5004762;28;19925;-78
2021/12/15 04:12:26;;;;;;;;;;;;;;;10.02;83.03;100312.03;4978474;28;20273;-77
2021/12/15 04:15:07;;;;;;;;;;;;;;;10.04;82.55;100316.31;4972325;28;19928;-77
2021/12/15 04:17:34;;;;;;;;;;;;;;;10.02;84.99;100317.19;4973382;28;19921;-77
2021/12/15 04:20:06;;;;;;;;;;;;;;;9.89;85.89;100326.72;5004956;28;19919;-77
2021/12/15 04:22:32;;;;;;;;;;;;;;;9.77;83.22;100324.25;4986939;28;19921;-77
2021/12/15 04:24:57;;;;;;;;;;;;;;;9.47;81.33;100323.59;4978465;28;19924;-77
2021/12/15 04:27:23;;;;;;;;;;;;;;;9.69;75.46;100338.88;4988503;28;19928;-77
2021/12/15 04:29:49;;;;;;;;;;;;;;;9.53;72.15;100346.69;4986432;28;19920;-77
2021/12/15 04:32:26;;;;;;;;;;;;;;;9.57;70.04;100340.66;5005142;28;20443;-77
2021/12/15 04:34:51;;;;;;;;;;;;;;;9.36;65.11;100351.09;4994993;28;20446;-78
2021/12/15 04:37:17;;;;;;;;;;;;;;;9.86;64.58;100357.63;4987072;28;19989;-77
2021/12/15 04:39:42;;;;;;;;;;;;;;;9.26;70.31;100349.41;5006155;28;19924;-77
2021/12/15 04:42:08;;;;;;;;;;;;;;;9.69;68.14;100356.88;5006344;28;19925;-77
2021/12/15 04:44:34;;;;;;;;;;;;;;;9.83;67.98;100357.66;4979083;28;19918;-78
2021/12/15 04:47:04;;;;;;;;;;;;;;;9.86;69.84;100357.63;4988093;28;19929;-77
2021/12/15 04:49:30;;;;;;;;;;;;;;;9.46;73.81;100363.00;5007028;28;20445;-77
2021/12/15 04:51:56;;;;;;;;;;;;;;;9.81;70.80;100356.81;5010377;28;20430;-77
2021/12/15 04:54:22;;;;;;;;;;;;;;;9.70;74.20;100361.19;5005949;28;20005;-78
2021/12/15 04:56:47;;;;;;;;;;;;;;;9.57;73.08;100358.66;5002729;28;20330;-77
2021/12/15 04:59:13;;;;;;;;;;;;;;;9.68;69.67;100362.91;4988893;28;19925;-77
2021/12/15 05:01:38;;;;;;;;;;;;;;;9.49;72.83;100363.00;4991084;28;19922;-77
2021/12/15 05:04:04;;;;;;;;;;;;;;;9.58;63.90;100368.09;5011716;28;19921;-77
2021/12/15 05:06:30;;;;;;;;;;;;;;;9.49;64.73;100378.44;4994121;28;19921;-77
2021/12/15 05:08:55;;;;;;;;;;;;;;;9.51;63.21;100387.00;4994320;28;19921;-77
2021/12/15 05:11:21;;;;;;;;;;;;;;;9.26;62.87;100390.53;4997846;28;19948;-77
2021/12/15 05:13:46;;;;;;;;;;;;;;;9.51;58.66;100397.28;4995423;28;19937;-77
2021/12/15 05:16:12;;;;;;;;;;;;;;;9.69;61.38;100406.59;4993179;28;19937;-77
2021/12/15 05:18:37;;;;;;;;;;;;;;;9.28;59.50;100399.09;4993691;28;19927;-77
2021/12/15 05:21:05;;;;;;;;;;;;;;;9.40;55.15;100407.63;4974670;28;20572;-77
2021/12/15 05:23:32;;;;;;;;;;;;;;;9.46;54.60;100417.00;5011806;28;19924;-78
2021/12/15 05:25:58;;;;;;;;;;;;;;;9.72;56.21;100423.75;5010307;28;19924;-78
2021/12/15 05:28:23;;;;;;;;;;;;;;;9.40;54.98;100424.78;4975616;28;19922;-78
2021/12/15 05:30:49;;;;;;;;;;;;;;;9.76;54.85;100433.16;4972962;28;19925;-77
2021/12/15 05:33:14;;;;;;;;;;;;;;;9.80;57.86;100430.53;4972627;28;20287;-77
2021/12/15 05:35:39;;;;;;;;;;;;;;;10.08;60.09;100430.41;4970755;28;20017;-77
2021/12/15 05:38:06;;;;;;;;;;;;;;;10.02;63.88;100420.97;4975915;28;20009;-77
2021/12/15 05:40:31;;;;;;;;;;;;;;;9.93;66.09;100423.63;4971240;28;19925;-78
2021/12/15 05:42:57;;;;;;;;;;;;;;;9.84;64.34;100415.97;4973460;28;19918;-78
2021/12/15 05:45:26;;;;;;;;;;;;;;;10.18;64.24;100426.03;4974076;28;20584;-78
2021/12/15 05:47:51;;;;;;;;;;;;;;;9.76;69.02;100422.84;4971913;28;19961;-78
2021/12/15 05:50:17;;;;;;;;;;;;;;;9.58;65.00;100424.69;4972636;28;20454;-78
2021/12/15 05:52:43;;;;;;;;;;;;;;;9.83;63.81;100424.56;4973709;28;19922;-78
2021/12/15 05:55:09;;;;;;;;;;;;;;;9.96;63.96;100431.31;4978316;28;19926;-78
2021/12/15 05:57:34;;;;;;;;;;;;;;;10.19;64.42;100430.28;4977504;28;19918;-78
2021/12/15 06:00:04;;;;;;;;;;;;;;;9.91;68.96;100422.78;4976875;28;19945;-78
2021/12/15 06:02:29;;;;;;;;;;;;;;;9.92;70.48;100414.19;4976082;28;19918;-77
2021/12/15 06:04:55;;;;;;;;;;;;;;;9.99;70.07;100415.88;4977345;28;19924;-78
2021/12/15 06:07:20;;;;;;;;;;;;;;;9.83;69.85;100415.13;4976964;28;19918;-78
2021/12/15 06:09:45;;;;;;;;;;;;;;;9.71;69.59;100414.31;4986262;28;19929;-78
2021/12/15 06:12:11;;;;;;;;;;;;;;;9.58;69.31;100423.84;4976239;28;19918;-78
2021/12/15 06:14:36;;;;;;;;;;;;;;;9.75;65.76;100429.72;4960519;28;19922;-78
2021/12/15 06:17:06;;;;;;;;;;;;;;;9.66;64.22;100426.34;4977616;28;19989;-78
2021/12/15 06:19:32;;;;;;;;;;;;;;;10.02;62.80;100426.13;4977577;28;19925;-78
2021/12/15 06:21:57;;;;;;;;;;;;;;;9.63;65.71;100425.50;4976687;28;19914;-78
2021/12/15 06:24:23;;;;;;;;;;;;;;;9.65;63.96;100435.81;4974589;28;19918;-78
2021/12/15 06:26:49;;;;;;;;;;;;;;;9.91;61.37;100438.22;4973676;28;19982;-78
2021/12/15 06:29:15;;;;;;;;;;;;;;;10.13;63.31;100440.66;4974763;28;19922;-78
2021/12/15 06:31:40;;;;;;;;;;;;;;;10.21;66.25;100431.13;4980498;28;19921;-78
2021/12/15 06:34:06;;;;;;;;;;;;;;;9.40;67.55;100433.34;4976630;28;19918;-78
2021/12/15 06:36:33;;;;;;;;;;;;;;;9.86;63.55;100439.97;4976484;28;19918;-77
2021/12/15 06:38:59;;;;;;;;;;;;;;;9.91;67.03;100438.22;4977139;28;19918;-78
2021/12/15 06:41:25;;;;;;;;;;;;;;;9.95;67.90;100439.91;4976904;28;20008;-78
2021/12/15 06:43:54;;;;;;;;;;;;;;;9.91;70.10;100433.06;4974953;28;19918;-78
2021/12/15 06:47:05;;;;;;;;;;;;;;;9.97;71.59;100443.31;4975700;28;19925;-78
2021/12/15 07:00:21;;;;;;;;;;;;;;;9.97;70.10;100448.47;4974125;28;20342;-78
2021/12/15 07:02:47;;;;;;;;;;;;;;;9.74;70.41;100445.16;4974291;28;19980;-78
2021/12/15 07:05:13;;;;;;;;;;;;;;;9.32;69.00;100447.06;4977191;28;19918;-78
2021/12/15 07:07:40;;;;;;;;;;;;;;;9.71;62.45;100463.19;4974723;28;19925;-78
2021/12/15 07:10:06;;;;;;;;;;;;;;;9.92;61.79;100460.53;4974498;28;19921;-78
2021/12/15 07:12:32;;;;;;;;;;;;;;;9.79;64.47;100464.03;4972016;28;19977;-78
2021/12/15 07:14:57;;;;;;;;;;;;;;;9.39;66.15;100454.75;4951821;28;19922;-78
2021/12/15 07:17:25;;;;;;;;;;;;;;;9.51;62.71;100463.28;4966986;28;19918;-78
2021/12/15 07:22:35;;;;;;;;;;;;;;;9.31;58.70;100471.09;4966679;28;19954;-77
2021/12/15 07:25:00;;;;;;;;;;;;;;;9.41;58.73;100468.47;4966425;28;19997;-78
2021/12/15 07:27:26;;;;;;;;;;;;;;;9.74;56.75;100481.19;4977124;28;19972;-78
2021/12/15 07:29:51;;;;;;;;;;;;;;;9.43;57.73;100471.03;5007087;28;19928;-77
2021/12/15 07:32:16;;;;;;;;;;;;;;;9.53;57.63;100477.84;4991884;28;19925;-78
2021/12/15 07:34:42;;;;;;;;;;;;;;;9.51;57.25;100484.72;5003603;28;19972;-78
2021/12/15 07:37:07;;;;;;;;;;;;;;;9.55;55.20;100482.97;5007017;28;19921;-78
2021/12/15 07:39:35;;;;;;;;;;;;;;;9.55;57.18;100488.13;5003744;28;20267;-77
2021/12/15 07:42:10;;;;;;;;;;;;;;;9.54;58.59;100489.00;4991026;28;19953;-77
2021/12/15 07:44:35;;;;;;;;;;;;;;;9.67;58.76;100484.66;4993852;28;20917;-78
2021/12/15 07:47:01;;;;;;;;;;;;;;;9.85;60.22;100487.13;4997959;28;19918;-78
2021/12/15 07:49:27;;;;;;;;;;;;;;;9.73;61.99;100487.19;4988982;28;20299;-78
2021/12/15 07:51:59;;;;;;;;;;;;;;;9.48;62.01;100484.72;5003381;28;19917;-78
2021/12/15 07:54:25;;;;;;;;;;;;;;;9.88;59.50;100489.69;4995569;28;20401;-78
2021/12/15 07:56:51;;;;;;;;;;;;;;;9.80;59.66;100488.88;4993082;28;19924;-78
2021/12/15 07:59:17;;;;;;;;;;;;;;;9.80;61.94;100483.72;5011007;28;19921;-78
2021/12/15 08:01:42;;;;;;;;;;;;;;;9.68;63.75;100471.78;4993604;28;20445;-78
2021/12/15 08:04:08;;;;;;;;;;;;;;;9.40;60.96;100476.19;4999193;28;19917;-78
2021/12/15 08:06:34;;;;;;;;;;;;;;;9.64;58.61;100485.50;4991375;28;20299;-78
2021/12/15 08:08:59;;;;;;;;;;;;;;;9.40;58.93;100492.47;4991578;28;19925;-78
2021/12/15 08:11:25;;;;;;;;;;;;;;;9.73;57.54;100489.78;5008895;28;20440;-78
2021/12/15 08:13:50;;;;;;;;;;;;;;;9.92;59.36;100493.09;4989291;28;20433;-78
2021/12/15 08:16:19;;;;;;;;;;;;;;;9.85;60.38;100489.69;4973844;28;19936;-78
2021/12/15 08:18:44;;;;;;;;;;;;;;;9.54;61.84;100495.00;4993054;28;19921;-78
2021/12/15 08:21:10;;;;;;;;;;;;;;;9.69;60.48;100493.22;4975667;28;20242;-78
2021/12/15 08:23:35;;;;;;;;;;;;;;;9.57;59.08;100500.13;4991331;28;19917;-78
2021/12/15 08:26:01;;;;;;;;;;;;;;;9.58;58.22;100495.84;5009366;28;19917;-78
2021/12/15 08:28:26;;;;;;;;;;;;;;;9.87;57.51;100495.69;5009918;28;19976;-78
2021/12/15 08:30:52;;;;;;;;;;;;;;;9.66;59.86;100494.09;4977657;28;19972;-78
2021/12/15 08:33:19;;;;;;;;;;;;;;;9.70;57.96;100494.94;4983784;28;19972;-77
2021/12/15 08:35:49;;;;;;;;;;;;;;;9.84;57.98;100499.16;4992126;28;20004;-78
2021/12/15 08:38:14;;;;;;;;;;;;;;;9.92;57.56;100505.97;4978044;28;19914;-78
2021/12/15 08:40:40;;;;;;;;;;;;;;;9.90;58.79;100506.00;4991957;28;19917;-78
2021/12/15 08:43:07;;;;;;;;;;;;;;;9.74;59.19;100506.91;5010521;28;19918;-78
2021/12/15 08:45:33;;;;;;;;;;;;;;;9.81;56.79;100509.47;4991928;28;20060;-78
2021/12/15 08:47:58;;;;;;;;;;;;;;;9.86;56.16;100517.16;5001153;28;20374;-78
2021/12/15 08:50:26;;;;;;;;;;;;;;;9.75;55.85;100521.50;4997093;28;19952;-78
2021/12/15 08:52:52;;;;;;;;;;;;;;;9.75;54.02;100529.22;5010110;28;19926;-78
2021/12/15 08:55:17;;;;;;;;;;;;;;;9.84;54.63;100524.03;4991942;28;20013;-78
2021/12/15 08:57:48;;;;;;;;;;;;;;;9.77;57.12;100527.50;5001796;28;19917;-78
2021/12/15 09:00:14;;;;;;;;;;;;;;;9.74;55.83;100514.63;5001520;28;19940;-77
2021/12/15 09:02:39;;;;;;;;;;;;;;;9.73;55.18;100518.06;5010216;28;20276;-78
2021/12/15 09:05:05;;;;;;;;;;;;;;;9.86;54.22;100512.00;4992851;28;19918;-78
2021/12/15 09:07:31;;;;;;;;;;;;;;;9.84;55.30;100518.88;4993010;28;19914;-78
2021/12/15 09:09:56;;;;;;;;;;;;;;;10.11;55.46;100517.03;4993605;28;19945;-78
2021/12/15 09:12:21;;;;;;;;;;;;;;;9.90;56.08;100517.97;4993501;28;20379;-78
2021/12/15 09:14:47;;;;;;;;;;;;;;;10.03;54.11;100514.47;4978203;28;20107;-78
2021/12/15 09:17:12;;;;;;;;;;;;;;;10.03;54.87;100514.47;5012106;28;19924;-78
2021/12/15 09:19:38;;;;;;;;;;;;;;;10.19;54.81;100515.25;4997026;28;19941;-77
2021/12/15 09:22:04;;;;;;;;;;;;;;;10.09;55.50;100511.03;4995887;28;19956;-77
2021/12/15 09:24:29;;;;;;;;;;;;;;;9.92;54.59;100513.69;4998579;28;19917;-78
2021/12/15 09:26:55;;;;;;;;;;;;;;;10.20;51.88;100522.13;4993425;28;20011;-78
2021/12/15 09:29:21;;;;;;;;;;;;;;;10.25;54.86;100520.38;5011483;28;19944;-78
2021/12/15 09:31:46;;;;;;;;;;;;;;;9.98;54.63;100522.22;5010854;28;19961;-77
2021/12/15 09:34:17;;;;;;;;;;;;;;;10.10;53.17;100526.44;4994986;28;19961;-77
2021/12/15 09:36:43;;;;;;;;;;;;;;;10.26;54.42;100527.22;4996455;28;19921;-78
2021/12/15 09:39:11;;;;;;;;;;;;;;;10.11;56.51;100530.75;4981999;28;19940;-78
2021/12/15 09:41:36;;;;;;;;;;;;;;;10.54;54.95;100529.66;4996616;28;20020;-78
2021/12/15 09:44:08;;;;;;;;;;;;;;;10.35;59.03;100529.78;4996151;28;20477;-78
2021/12/15 09:46:52;;;;;;;;;;;;;;;10.57;59.36;100521.91;4996478;28;19922;-78
2021/12/15 09:57:48;;;;;;;;;;;;;;;10.38;56.89;100526.34;5000864;28;19963;-77
2021/12/15 10:03:03;;;;;;;;;;;;;;;10.69;56.73;100526.94;5015325;28;19940;-78
2021/12/15 10:05:43;;;;;;;;;;;;;;;10.40;61.46;100525.47;5000240;28;20397;-78
2021/12/15 10:11:15;;;;;;;;;;;;;;;10.43;57.97;100525.44;5001002;28;19943;-78
2021/12/15 10:19:25;;;;;;;;;;;;;;;10.46;59.22;100525.41;5003929;28;19940;-78
2021/12/15 10:22:07;;;;;;;;;;;;;;;10.87;59.18;100531.94;5000327;28;19991;-78
2021/12/15 10:24:36;;;;;;;;;;;;;;;10.68;61.47;100525.25;4999175;28;19917;-78
2021/12/15 10:27:02;;;;;;;;;;;;;;;10.82;61.81;100513.09;4998215;28;20425;-77
2021/12/15 10:29:27;;;;;;;;;;;;;;;10.39;62.81;100518.59;5014550;28;20463;-78
2021/12/15 10:31:57;;;;;;;;;;;;;;;10.55;60.64;100509.03;5012998;28;19929;-77
2021/12/15 10:34:22;;;;;;;;;;;;;;;10.23;58.64;100516.94;4994154;28;19925;-77
2021/12/15 10:36:48;;;;;;;;;;;;;;;10.54;58.03;100515.06;5012881;28;19913;-77
2021/12/15 10:39:14;;;;;;;;;;;;;;;10.22;59.39;100510.94;4996094;28;19956;-78
2021/12/15 10:41:41;;;;;;;;;;;;;;;10.21;57.63;100513.53;4979936;28;20286;-78
2021/12/15 10:44:06;;;;;;;;;;;;;;;10.56;57.45;100512.44;4997439;28;19982;-77
2021/12/15 10:46:49;;;;;;;;;;;;;;;10.35;60.93;100516.88;5014456;28;20399;-77
2021/12/15 10:49:24;;;;;;;;;;;;;;;10.40;59.87;100503.97;4992687;28;20028;-78
2021/12/15 10:52:02;;;;;;;;;;;;;;;10.49;59.85;100513.38;4983348;28;20039;-77
2021/12/15 10:54:35;;;;;;;;;;;;;;;10.50;57.67;100515.09;5014877;28;19959;-78
2021/12/15 10:57:06;;;;;;;;;;;;;;;10.75;59.13;100511.44;4980789;28;20000;-77
2021/12/15 10:59:34;;;;;;;;;;;;;;;10.38;63.46;100506.59;5012943;28;19917;-77
2021/12/15 11:02:11;;;;;;;;;;;;;;;10.52;61.38;100513.38;4996210;28;19943;-78
2021/12/15 11:04:45;;;;;;;;;;;;;;;10.62;63.67;100517.56;4996638;28;19923;-77
2021/12/15 11:07:13;;;;;;;;;;;;;;;10.73;64.86;100510.59;5014722;28;19921;-78
2021/12/15 11:09:57;;;;;;;;;;;;;;;10.92;64.72;100511.28;4999951;28;21159;-77
2021/12/15 11:12:40;;;;;;;;;;;;;;;10.85;69.70;100505.34;4982326;28;19917;-77
2021/12/15 11:15:12;;;;;;;;;;;;;;;10.67;72.56;100508.94;5012979;28;19928;-78
2021/12/15 11:17:40;;;;;;;;;;;;;;;10.84;72.51;100507.94;5014427;28;19952;-77
2021/12/15 11:20:10;;;;;;;;;;;;;;;10.89;73.07;100503.59;4999256;28;19952;-78
2021/12/15 11:22:39;;;;;;;;;;;;;;;10.80;73.84;100508.84;4991728;28;19917;-77
2021/12/15 11:25:06;;;;;;;;;;;;;;;10.50;75.46;100504.78;5013502;28;20797;-78
2021/12/15 11:27:31;;;;;;;;;;;;;;;10.52;72.19;100508.22;4992661;28;19921;-78
2021/12/15 11:29:57;;;;;;;;;;;;;;;10.72;72.22;100506.34;4992374;28;19924;-78
2021/12/15 11:32:41;;;;;;;;;;;;;;;11.03;72.41;100500.88;4979448;28;19917;-77
2021/12/15 11:35:13;;;;;;;;;;;;;;;10.77;75.40;100491.69;4993407;28;20017;-78
2021/12/15 11:37:42;;;;;;;;;;;;;;;10.88;76.42;100497.59;4993748;28;20303;-78
2021/12/15 11:40:08;;;;;;;;;;;;;;;10.91;74.25;100495.88;4977383;28;19918;-78
2021/12/15 11:42:37;;;;;;;;;;;;;;;11.00;74.35;100495.78;4993049;28;19918;-78
2021/12/15 11:45:06;;;;;;;;;;;;;;;10.82;74.80;100495.06;4991262;28;20284;-77
2021/12/15 11:47:33;;;;;;;;;;;;;;;10.92;74.12;100487.25;4975804;28;19918;-78
2021/12/15 11:50:05;;;;;;;;;;;;;;;11.05;74.51;100484.53;4973673;28;19914;-77
2021/12/15 11:52:36;;;;;;;;;;;;;;;10.84;78.51;100479.59;4976025;28;20439;-77
2021/12/15 11:55:01;;;;;;;;;;;;;;;10.66;75.14;100480.63;4960219;28;19933;-77
2021/12/15 11:57:28;;;;;;;;;;;;;;;10.34;74.33;100476.56;4988237;28;20189;-77
2021/12/15 11:59:54;;;;;;;;;;;;;;;10.35;69.15;100491.13;4987063;28;19988;-77
2021/12/15 12:02:21;;;;;;;;;;;;;;;10.65;69.24;100489.19;4986780;28;19918;-77
2021/12/15 12:04:47;;;;;;;;;;;;;;;10.86;69.50;100478.72;4987733;28;19918;-77
2021/12/15 12:07:41;;;;;;;;;;;;;;;10.85;73.11;100481.28;4988465;28;19914;-77
2021/12/15 12:10:09;;;;;;;;;;;;;;;10.68;73.20;100481.47;4987971;28;20293;-77
2021/12/15 12:12:40;;;;;;;;;;;;;;;10.73;72.23;100484.84;4958142;28;19913;-77
2021/12/15 12:15:07;;;;;;;;;;;;;;;10.73;73.28;100486.56;4972386;28;19922;-77
2021/12/15 12:17:34;;;;;;;;;;;;;;;10.87;70.42;100480.41;4988149;28;20256;-77
2021/12/15 12:20:02;;;;;;;;;;;;;;;10.98;72.97;100476.88;4987577;28;19920;-77
2021/12/15 12:22:29;;;;;;;;;;;;;;;10.80;77.00;100477.91;4983801;28;19977;-76
2021/12/15 12:24:56;;;;;;;;;;;;;;;10.84;77.33;100477.88;4970249;28;19954;-76
2021/12/15 12:27:22;;;;;;;;;;;;;;;11.04;75.34;100476.84;4970991;28;19935;-76
2021/12/15 12:29:47;;;;;;;;;;;;;;;11.03;75.80;100475.97;4973705;28;20037;-78
2021/12/15 12:32:13;;;;;;;;;;;;;;;10.76;75.49;100466.75;4992950;28;19984;-76
2021/12/15 12:34:41;;;;;;;;;;;;;;;10.78;75.32;100464.19;4987298;28;19936;-76
2021/12/15 12:37:07;;;;;;;;;;;;;;;10.49;75.63;100461.84;4987652;28;19917;-77
2021/12/15 12:39:33;;;;;;;;;;;;;;;10.74;72.98;100465.94;4991464;28;20703;-78
2021/12/15 12:41:59;;;;;;;;;;;;;;;10.84;74.49;100459.81;4992132;28;19924;-77
2021/12/15 12:44:32;;;;;;;;;;;;;;;11.13;74.96;100456.13;5007620;28;20012;-78
2021/12/15 12:47:03;;;;;;;;;;;;;;;11.04;77.75;100456.22;4989889;28;19917;-78
2021/12/15 13:00:20;;;;;;;;;;;;;;;11.00;79.46;100459.69;5007373;28;19980;-78
2021/12/15 13:02:49;;;;;;;;;;;;;;;11.18;78.40;100463.78;4990208;28;19913;-78
2021/12/15 13:05:34;;;;;;;;;;;;;;;10.99;80.37;100469.16;4990555;28;20024;-77
2021/12/15 13:08:04;;;;;;;;;;;;;;;10.13;77.03;100458.69;4975509;28;19957;-76
2021/12/15 13:10:47;;;;;;;;;;;;;;;10.27;66.32;100477.44;4984837;28;20362;-75
2021/12/15 13:13:36;;;;;;;;;;;;;;;10.14;62.87;100488.69;5002572;28;19917;-75
2021/12/15 13:16:04;;;;;;;;;;;;;;;10.70;58.97;100492.59;4996092;28;19921;-75
2021/12/15 13:18:42;;;;;;;;;;;;;;;10.31;62.20;100492.06;5002565;28;19913;-75
2021/12/15 13:21:10;;;;;;;;;;;;;;;10.45;58.81;100486.81;4988914;28;19921;-76
2021/12/15 13:23:57;;;;;;;;;;;;;;;9.99;56.91;100493.06;4976061;28;20345;-75
2021/12/15 13:29:26;;;;;;;;;;;;;;;10.56;60.48;100499.56;5006449;28;20009;-76
2021/12/15 13:31:53;;;;;;;;;;;;;;;10.21;60.91;100495.50;4988210;28;19971;-76
2021/12/15 13:34:32;;;;;;;;;;;;;;;10.14;56.05;100506.72;5006556;28;19921;-76
2021/12/15 13:36:59;;;;;;;;;;;;;;;10.77;51.03;100509.72;4993274;28;19918;-76
2021/12/15 13:39:24;;;;;;;;;;;;;;;10.73;54.08;100496.88;4992373;28;19975;-75
2021/12/15 13:42:08;;;;;;;;;;;;;;;11.04;59.09;100487.16;4993424;28;19961;-75
2021/12/15 13:44:45;;;;;;;;;;;;;;;10.30;56.77;100490.31;5006522;28;19918;-75
2021/12/15 13:47:15;;;;;;;;;;;;;;;10.13;56.94;100487.00;5007958;28;20078;-76
2021/12/15 13:49:49;;;;;;;;;;;;;;;9.75;54.61;100498.34;4989939;28;19920;-75
2021/12/15 13:52:27;;;;;;;;;;;;;;;10.53;51.07;100504.75;5006739;28;19914;-75
2021/12/15 13:54:54;;;;;;;;;;;;;;;10.57;53.60;100507.31;4988663;28;19918;-75
2021/12/15 13:57:27;;;;;;;;;;;;;;;9.98;55.40;100506.78;4988406;28;19917;-76
2021/12/15 13:59:53;;;;;;;;;;;;;;;10.13;55.67;100505.00;4987751;28;20386;-75
2021/12/15 14:02:19;;;;;;;;;;;;;;;10.01;51.70;100506.78;5006735;28;19944;-75